createdAt,value
2019-05-17T07:47:40.936Z,48144.92
2019-05-17T07:50:11.305Z,48197.10
2019-05-17T07:52:39.912Z,48195.13
2019-05-17T07:59:39.721Z,48161.66
2019-05-17T08:57:31.864Z,99793.44
2019-05-17T09:00:05.058Z,99803.67
2019-05-17T09:02:35.904Z,99798.70
2019-05-17T09:50:12.493Z,99753.72
2019-05-17T09:54:45.762Z,99752.03
2019-05-17T09:57:14.235Z,99753.50
2019-05-17T09:59:43.367Z,99753.41
2019-05-17T10:02:11.591Z,99754.83
2019-05-17T10:04:40.071Z,99756.81
2019-05-17T10:07:10.235Z,99758.95
2019-05-17T10:09:40.021Z,99752.08
2019-05-17T10:12:09.545Z,99749.59
2019-05-17T10:14:38.773Z,99752.30
2019-05-17T10:17:09.726Z,99752.32
2019-05-17T10:19:40.039Z,99750.47
2019-05-17T10:22:10.184Z,99750.47
2019-05-17T10:24:39.670Z,99745.20
2019-05-17T10:27:10.739Z,99747.01
2019-05-17T10:29:39.493Z,99741.77
2019-05-17T10:32:10.345Z,99753.11
2019-05-17T10:34:40.009Z,99744.91
2019-05-17T10:37:10.306Z,99747.11
2019-05-17T10:39:41.167Z,99743.38
2019-05-17T10:42:10.033Z,99745.84
2019-05-17T10:44:44.329Z,99741.94
2019-05-17T10:47:10.059Z,99742.67
2019-05-17T10:49:40.138Z,99743.06
2019-05-17T10:52:09.509Z,99740.03
2019-05-17T10:54:40.237Z,99742.36
2019-05-17T10:57:10.497Z,99748.81
2019-05-17T10:59:39.675Z,99745.78
2019-05-17T11:02:09.950Z,99751.17
2019-05-17T11:04:40.187Z,99742.03
2019-05-17T11:07:10.417Z,99745.55
2019-05-17T11:09:40.289Z,99746.86
2019-05-17T11:12:08.973Z,99747.95
2019-05-17T11:14:52.261Z,99748.92
2019-05-17T11:17:18.346Z,99740.88
2019-05-17T11:21:54.500Z,99739.92
2019-05-17T11:24:23.043Z,99730.95
2019-05-17T11:26:56.356Z,99738.69
2019-05-17T11:29:26.549Z,99741.00
2019-05-17T11:31:57.698Z,99736.11
2019-05-17T11:34:27.436Z,99734.45
2019-05-17T11:36:57.206Z,99740.41
2019-05-17T11:39:26.596Z,99742.84
2019-05-17T11:41:59.755Z,99740.02
2019-05-17T11:44:29.333Z,99736.22
2019-05-17T11:46:58.617Z,99733.72
2019-05-17T11:49:31.918Z,99729.68
2019-05-17T11:52:01.682Z,99730.25
2019-05-17T11:54:35.076Z,99730.65
2019-05-17T11:57:12.191Z,99722.85
2019-05-17T11:59:41.128Z,99720.59
2019-05-17T12:02:12.498Z,99716.16
2019-05-17T12:04:45.840Z,99714.79
2019-05-17T12:07:19.221Z,99720.38
2019-05-17T12:09:47.574Z,99718.48
2019-05-17T12:12:20.655Z,99715.22
2019-05-17T12:14:54.135Z,99715.98
2019-05-17T12:17:23.201Z,99710.02
2019-05-17T12:19:54.377Z,99718.35
2019-05-17T12:22:27.653Z,99719.03
2019-05-17T12:25:01.052Z,99709.78
2019-05-17T12:27:34.670Z,99709.55
2019-05-17T12:30:04.517Z,99706.75
2019-05-17T12:32:37.922Z,99702.18
2019-05-17T12:35:07.058Z,99698.88
2019-05-17T12:37:37.239Z,99695.82
2019-05-17T12:40:10.420Z,99697.78
2019-05-17T12:42:39.534Z,99696.06
2019-05-17T12:45:12.844Z,99691.06
2019-05-17T12:55:00.469Z,99678.34
2019-05-17T12:57:29.599Z,99672.66
2019-05-17T12:59:59.212Z,99676.91
2019-05-17T13:02:28.319Z,99679.83
2019-05-17T13:04:57.357Z,99677.57
2019-05-17T13:07:27.831Z,99678.55
2019-05-17T13:09:57.164Z,99671.95
2019-05-17T13:12:27.423Z,99673.14
2019-05-17T13:14:57.357Z,99673.87
2019-05-17T13:17:27.538Z,99672.96
2019-05-17T13:20:00.525Z,99673.08
2019-05-17T13:22:33.892Z,99670.32
2019-05-17T13:25:06.070Z,99674.69
2019-05-17T13:27:38.581Z,99669.12
2019-05-17T13:30:05.364Z,99667.47
2019-05-17T13:32:34.206Z,99666.48
2019-05-17T13:35:03.413Z,99664.42
2019-05-17T13:37:37.924Z,99668.70
2019-05-17T13:40:11.068Z,99665.42
2019-05-17T13:42:40.308Z,99662.21
2019-05-17T13:45:11.043Z,99661.12
2019-05-17T13:47:39.854Z,99655.25
2019-05-17T13:50:08.905Z,99645.59
2019-05-17T13:52:42.608Z,99647.17
2019-05-17T13:55:11.884Z,99642.92
2019-05-17T13:57:40.921Z,99640.16
2019-05-17T14:00:13.521Z,99641.23
2019-05-17T14:02:47.173Z,99639.86
2019-05-17T14:05:20.703Z,99633.27
2019-05-17T14:07:50.878Z,99635.17
2019-05-17T14:10:27.623Z,99638.67
2019-05-17T14:12:50.684Z,99633.71
2019-05-17T14:59:45.800Z,99729.17
2019-05-17T15:02:13.646Z,99729.36
2019-05-17T15:04:41.339Z,99733.63
2019-05-17T15:07:11.281Z,99738.20
2019-05-17T15:09:38.390Z,99741.28
2019-05-17T15:12:06.112Z,99730.01
2019-05-17T15:14:33.773Z,99729.17
2019-05-17T15:17:01.463Z,99733.47
2019-05-17T15:19:29.220Z,99739.84
2019-05-17T15:21:56.872Z,99732.14
2019-05-17T15:24:24.541Z,99733.05
2019-05-17T15:27:04.745Z,99729.42
2019-05-17T15:29:21.654Z,99727.95
2019-05-17T15:31:52.002Z,99724.52
2019-05-17T15:34:18.745Z,99721.98
2019-05-17T15:36:46.425Z,99719.63
2019-05-17T15:39:14.080Z,99722.20
2019-05-17T15:41:41.785Z,99707.62
2019-05-17T15:44:09.454Z,99718.79
2019-05-17T15:46:37.113Z,99716.29
2019-05-17T15:49:04.796Z,99708.56
2019-05-17T15:51:32.653Z,99710.02
2019-05-17T15:54:00.293Z,99714.19
2019-05-17T15:56:27.950Z,99708.58
2019-05-17T15:58:55.990Z,99707.52
2019-05-17T16:01:23.647Z,99705.14
2019-05-17T16:03:51.307Z,99701.25
2019-05-17T16:06:19.006Z,99700.02
2019-05-17T16:08:46.740Z,99701.88
2019-05-17T16:11:14.407Z,99698.25
2019-05-17T16:13:42.081Z,99694.90
2019-05-17T16:16:09.733Z,99696.48
2019-05-17T16:18:37.493Z,99694.69
2019-05-17T16:21:05.169Z,99695.44
2019-05-17T16:23:32.857Z,99690.02
2019-05-17T16:26:00.495Z,99685.32
2019-05-17T16:28:28.169Z,99684.28
2019-05-17T16:30:55.928Z,99688.14
2019-05-17T16:33:23.581Z,99674.58
2019-05-17T16:35:51.227Z,99681.26
2019-05-17T16:38:18.892Z,99689.06
2019-05-17T16:40:46.526Z,99692.31
2019-05-17T16:43:18.235Z,99693.14
2019-05-17T16:45:43.753Z,99687.41
2019-05-17T16:48:11.422Z,99685.85
2019-05-17T16:50:39.088Z,99682.70
2019-05-17T16:53:06.764Z,99684.91
2019-05-17T16:55:34.484Z,99681.97
2019-05-17T16:58:02.243Z,99685.52
2019-05-17T17:00:30.095Z,99677.56
2019-05-17T17:02:57.746Z,99680.10
2019-05-17T17:05:25.427Z,99687.34
2019-05-17T17:07:53.360Z,99677.36
2019-05-17T17:10:21.179Z,99683.19
2019-05-17T17:12:48.941Z,99673.30
2019-05-17T17:15:16.584Z,99673.81
2019-05-17T17:17:44.235Z,99684.44
2019-05-17T17:20:11.884Z,99684.44
2019-05-17T17:22:39.539Z,99687.77
2019-05-17T17:25:07.273Z,99680.45
2019-05-17T17:27:34.935Z,99691.14
2019-05-17T17:30:02.585Z,99692.61
2019-05-17T17:32:30.224Z,99697.61
2019-05-17T17:34:57.863Z,99697.48
2019-05-17T17:37:25.605Z,99696.84
2019-05-17T17:39:53.545Z,99692.27
2019-05-17T17:42:21.301Z,99693.84
2019-05-17T17:44:48.965Z,99698.05
2019-05-17T17:47:16.681Z,99687.05
2019-05-17T17:49:44.336Z,99689.92
2019-05-17T17:52:11.989Z,99687.05
2019-05-17T17:54:39.642Z,99676.39
2019-05-17T17:57:07.301Z,99681.52
2019-05-17T17:59:35.033Z,99678.75
2019-05-17T18:02:02.682Z,99682.77
2019-05-17T18:04:30.338Z,99693.27
2019-05-17T18:06:58.072Z,99683.78
2019-05-17T18:09:25.723Z,99686.16
2019-05-17T18:11:53.468Z,99686.57
2019-05-17T18:14:21.120Z,99688.53
2019-05-17T18:16:48.775Z,99687.04
2019-05-17T18:19:16.418Z,99685.60
2019-05-17T18:21:44.079Z,99693.38
2019-05-17T18:24:11.741Z,99684.03
2019-05-17T18:26:39.451Z,99686.95
2019-05-17T18:29:08.095Z,99691.66
2019-05-17T18:31:35.986Z,99689.02
2019-05-17T18:34:03.642Z,99691.30
2019-05-17T18:36:31.292Z,99689.95
2019-05-17T18:38:58.929Z,99693.38
2019-05-17T18:41:26.591Z,99693.59
2019-05-17T18:43:54.231Z,99701.04
2019-05-17T18:46:21.894Z,99701.20
2019-05-17T18:48:49.531Z,99703.39
2019-05-17T18:51:17.188Z,99704.23
2019-05-17T18:53:44.834Z,99708.22
2019-05-17T18:56:12.524Z,99711.89
2019-05-17T18:58:40.166Z,99711.05
2019-05-17T19:01:07.828Z,99715.66
2019-05-17T19:03:35.480Z,99719.30
2019-05-17T19:06:03.140Z,99720.95
2019-05-17T19:08:30.788Z,99723.68
2019-05-17T19:10:58.456Z,99729.48
2019-05-17T19:13:26.115Z,99730.22
2019-05-17T19:15:53.789Z,99729.89
2019-05-17T19:18:21.436Z,99737.07
2019-05-17T19:20:49.109Z,99736.41
2019-05-17T19:23:16.776Z,99739.30
2019-05-17T19:25:44.442Z,99737.62
2019-05-17T19:28:12.182Z,99733.71
2019-05-17T19:30:39.830Z,99735.47
2019-05-17T19:33:07.867Z,99738.40
2019-05-17T19:35:35.519Z,99739.71
2019-05-17T19:38:03.242Z,99736.08
2019-05-17T19:40:30.940Z,99733.05
2019-05-17T19:42:58.591Z,99735.50
2019-05-17T19:45:26.244Z,99742.77
2019-05-17T19:47:53.884Z,99740.45
2019-05-17T19:50:21.532Z,99744.69
2019-05-17T19:52:49.191Z,99733.73
2019-05-17T19:55:16.847Z,99733.73
2019-05-17T19:57:44.487Z,99742.75
2019-05-17T20:00:12.316Z,99741.47
2019-05-17T20:02:39.996Z,99743.06
2019-05-17T20:05:07.653Z,99740.34
2019-05-17T20:07:38.538Z,99740.48
2019-05-17T20:10:04.704Z,99743.62
2019-05-17T20:12:32.361Z,99737.61
2019-05-17T20:15:15.954Z,99736.93
2019-05-17T20:17:29.388Z,99737.05
2019-05-17T20:19:57.024Z,99742.98
2019-05-17T20:22:24.682Z,99737.67
2019-05-17T20:24:52.335Z,99744.53
2019-05-17T20:27:19.989Z,99734.98
2019-05-17T20:29:47.619Z,99735.98
2019-05-17T20:32:15.285Z,99732.83
2019-05-17T20:34:42.938Z,99739.20
2019-05-17T20:37:10.638Z,99739.70
2019-05-17T20:39:38.282Z,99732.33
2019-05-17T20:42:05.952Z,99732.34
2019-05-17T20:44:33.593Z,99737.53
2019-05-17T20:47:01.309Z,99727.47
2019-05-17T20:49:28.947Z,99735.34
2019-05-17T20:51:56.613Z,99727.62
2019-05-17T20:54:24.256Z,99728.97
2019-05-17T20:56:51.920Z,99725.59
2019-05-17T20:59:19.647Z,99721.69
2019-05-17T21:01:47.313Z,99727.55
2019-05-17T21:04:14.964Z,99724.52
2019-05-17T21:06:42.616Z,99714.39
2019-05-17T21:09:10.268Z,99717.81
2019-05-17T21:11:37.928Z,99718.42
2019-05-17T21:14:05.580Z,99724.08
2019-05-17T21:16:33.235Z,99721.25
2019-05-17T21:19:00.891Z,99721.34
2019-05-17T21:21:28.664Z,99716.03
2019-05-17T21:23:56.324Z,99724.42
2019-05-17T21:26:23.984Z,99726.20
2019-05-17T21:28:51.649Z,99727.31
2019-05-17T21:31:19.307Z,99723.28
2019-05-17T21:33:46.969Z,99725.09
2019-05-17T21:36:14.614Z,99732.94
2019-05-17T21:38:42.271Z,99733.26
2019-05-17T21:41:09.999Z,99734.00
2019-05-17T21:43:37.669Z,99733.75
2019-05-17T21:46:05.333Z,99731.33
2019-05-17T21:48:33.003Z,99732.52
2019-05-17T21:51:00.666Z,99734.13
2019-05-17T21:53:28.349Z,99732.17
2019-05-17T21:55:56.088Z,99731.76
2019-05-17T21:58:23.748Z,99728.42
2019-05-17T22:00:53.094Z,99734.70
2019-05-17T22:03:20.767Z,99738.44
2019-05-17T22:05:48.417Z,99737.19
2019-05-17T22:08:16.123Z,99738.38
2019-05-17T22:10:43.780Z,99730.68
2019-05-17T22:13:11.449Z,99741.09
2019-05-17T22:15:39.164Z,99736.36
2019-05-17T22:18:06.834Z,99734.06
2019-05-17T22:20:34.485Z,99736.69
2019-05-17T22:23:02.235Z,99746.16
2019-05-17T22:25:29.908Z,99742.17
2019-05-17T22:27:57.601Z,99736.61
2019-05-17T22:30:25.393Z,99740.20
2019-05-17T22:32:53.052Z,99741.42
2019-05-17T22:35:20.730Z,99735.30
2019-05-17T22:37:48.383Z,99735.53
2019-05-17T22:40:16.092Z,99736.86
2019-05-17T22:42:43.821Z,99747.73
2019-05-17T22:45:11.550Z,99749.59
2019-05-17T22:47:39.204Z,99752.84
2019-05-17T22:50:06.872Z,99754.55
2019-05-17T22:52:34.530Z,99752.03
2019-05-17T22:55:02.221Z,99755.87
2019-05-17T22:57:29.879Z,99753.61
2019-05-17T22:59:57.539Z,99749.20
2019-05-17T23:02:25.194Z,99752.39
2019-05-17T23:04:52.860Z,99744.53
2019-05-17T23:07:20.524Z,99744.81
2019-05-17T23:09:48.199Z,99750.66
2019-05-17T23:12:15.848Z,99746.20
2019-05-17T23:14:43.555Z,99745.59
2019-05-17T23:17:11.215Z,99748.91
2019-05-17T23:19:38.877Z,99740.95
2019-05-17T23:22:06.538Z,99737.41
2019-05-17T23:24:34.205Z,99746.64
2019-05-17T23:27:01.868Z,99743.91
2019-05-17T23:29:29.749Z,99744.34
2019-05-17T23:31:57.469Z,99748.22
2019-05-17T23:34:25.122Z,99749.21
2019-05-17T23:36:52.789Z,99746.17
2019-05-17T23:39:20.516Z,99742.09
2019-05-17T23:41:48.187Z,99741.59
2019-05-17T23:44:15.862Z,99741.03
2019-05-17T23:46:43.561Z,99741.79
2019-05-17T23:49:11.227Z,99741.84
2019-05-17T23:51:38.877Z,99744.86
2019-05-17T23:54:06.536Z,99742.69
2019-05-17T23:56:34.194Z,99743.48
2019-05-17T23:59:01.894Z,99746.91
